Etusivu
METAR-TAF:

METAR-TAF

Lentoasemat :

Kiel, Saksa

Leveyspiiri: 54-23N, Pituuspiiri: 010-10E, korkeus merenpinnasta: 31 m

Tämänhetkinen sää

Tämä raportti tehtiin 33 minuuttia sitten, kello 20.50 UTC
Tuuli 2 kn idästä/kaakosta
Lämpötila 4°C
Kosteus 65%
Ilmanpaine 1027 hPa
Näkyvyys 10 km tai enemmän

METAR: EDHK 212050Z AUTO 11002KT 9999 // SCT057/// BKN180/// 04/M02 Q1027

Aika: 23:23 (21:23 UTC)

Sääennuste

Tämä raportti tehtiin 7 tuntia ja 23 minuuttia sitten, kello 14.00 UTC
Ennuste voimassa 21. päivästä klo 15 UTC - 21. päivään klo 19 UTC
Tuuli 7 kn idästä
Näkyvyys 10 km tai enemmän
Hajanaisia pilviä 2000 ft:n korkeudessa
Todennäköisyys 30% :
Ajoittain
21. päivästä klo 15 UTC - 21. päivään klo 17 UTC
Tuuli 13 kn koillisesta

TAF: EDHK 211400Z 2115/2119 08007KT 9999 SCT020 PROB30 TEMPO 2115/2117 04013KT

Säähavainnot ja -ennusteet yli 4000 lentoasemalta (METAR- ja TAF-raportit).

Käytössä olevat sääasemat on merkitty karttaan keltaisilla ja punaisilla pisteillä.

Aseta hiiri pisteen päälle nähdäksesi sääaseman nimen.

Klikkaa sitten nähdäksesi säähavainnot ja -ennusteet.

Kartan vaihtaminen: klikkaa mustalla rastilla varustettuja vihreitä pisteitä, niin voit zoomata sisään; viivalla varustettua vihreää pistettä, niin voit zoomata ulos tai vihreitä nuolia, niin pääset viereisille kartoille.


METAR-TAF: